Time;durP1;ratioP1;P1;durP2;ratioP2;P2;SDS_P1;SDS_P2;PMS_P1;PMS_P2;Temp;Humidity;BMP_temperature;BMP_pressure;BME280_temperature;BME280_humidity;BME280_pressure;Samples;Min_cycle;Max_cycle;Signal;HPM_P1;HPM_P2
2023/03/05 00:01:28;;;;;;;6.40;3.10;;;4.40;99.90;;;;;;5077379;28;20798;-73
2023/03/05 00:03:56;;;;;;;8.77;3.03;;;4.40;99.90;;;;;;5078659;28;21191;-73
2023/03/05 00:06:24;;;;;;;4.93;3.20;;;4.40;99.90;;;;;;5074182;28;20722;-72
2023/03/05 00:08:52;;;;;;;5.40;3.20;;;4.40;99.90;;;;;;5074211;28;20496;-72
2023/03/05 00:11:20;;;;;;;8.50;3.30;;;4.40;99.90;;;;;;5074242;28;20494;-73
2023/03/05 00:13:47;;;;;;;3.37;2.30;;;4.40;99.90;;;;;;5082445;28;21073;-72
2023/03/05 00:16:16;;;;;;;10.50;3.40;;;4.40;99.90;;;;;;5075887;28;20448;-72
2023/03/05 00:18:45;;;;;;;7.83;3.13;;;4.40;99.90;;;;;;5074393;28;20450;-72
2023/03/05 00:21:20;;;;;;;6.80;3.40;;;4.40;99.90;;;;;;5074538;28;20486;-72
2023/03/05 00:23:49;;;;;;;3.63;2.60;;;4.40;99.90;;;;;;5076962;28;20517;-72
2023/03/05 00:26:16;;;;;;;8.80;2.80;;;4.40;99.90;;;;;;5078850;28;20870;-73
2023/03/05 00:28:42;;;;;;;8.97;3.40;;;4.40;99.90;;;;;;5072397;28;20533;-73
2023/03/05 00:31:09;;;;;;;10.63;2.90;;;4.40;99.90;;;;;;5084347;28;20462;-73
2023/03/05 00:33:36;;;;;;;4.37;2.90;;;4.40;99.90;;;;;;5076397;28;20816;-73
2023/03/05 00:36:07;;;;;;;5.47;3.03;;;4.40;99.90;;;;;;5073132;28;20501;-73
2023/03/05 00:38:34;;;;;;;4.73;2.73;;;4.30;99.90;;;;;;5073963;28;20514;-73
2023/03/05 00:41:01;;;;;;;6.40;2.97;;;4.30;99.90;;;;;;5072885;28;20535;-73
2023/03/05 00:43:28;;;;;;;4.03;2.90;;;4.30;99.90;;;;;;5073589;28;20506;-73
2023/03/05 00:45:54;;;;;;;11.80;2.90;;;4.30;99.90;;;;;;5075841;28;20464;-73
2023/03/05 00:48:22;;;;;;;7.40;3.40;;;4.30;99.90;;;;;;5074216;28;20919;-73
2023/03/05 00:50:49;;;;;;;6.87;3.07;;;4.30;99.90;;;;;;5073968;28;20454;-73
2023/03/05 00:53:17;;;;;;;5.67;2.70;;;4.30;99.90;;;;;;5074266;28;20472;-73
2023/03/05 00:55:44;;;;;;;6.43;2.67;;;4.30;99.90;;;;;;5074043;28;20501;-73
2023/03/05 00:58:10;;;;;;;4.90;2.77;;;4.20;99.90;;;;;;5074071;28;20448;-73
2023/03/05 01:00:37;;;;;;;6.33;3.10;;;4.20;99.90;;;;;;5076009;28;20472;-73
2023/03/05 01:03:04;;;;;;;6.30;2.70;;;4.20;99.90;;;;;;5076807;28;20499;-73
2023/03/05 01:05:31;;;;;;;5.33;2.53;;;4.20;99.90;;;;;;5082402;28;20460;-73
2023/03/05 01:07:57;;;;;;;9.77;3.20;;;4.30;99.90;;;;;;5073922;28;20499;-73
2023/03/05 01:10:26;;;;;;;9.17;3.30;;;4.30;99.90;;;;;;5073598;28;20534;-73
2023/03/05 01:12:53;;;;;;;6.00;3.40;;;4.30;99.90;;;;;;5082013;28;20452;-73
2023/03/05 01:15:19;;;;;;;7.00;3.50;;;4.30;99.90;;;;;;5074125;28;20526;-73
2023/03/05 01:17:46;;;;;;;7.67;3.07;;;4.30;99.90;;;;;;5073721;28;20457;-73
2023/03/05 01:20:14;;;;;;;6.77;2.77;;;4.30;99.90;;;;;;5073738;28;20445;-73
2023/03/05 01:22:41;;;;;;;5.63;3.10;;;4.30;99.90;;;;;;5078975;28;20454;-73
2023/03/05 01:25:09;;;;;;;6.30;3.40;;;4.30;99.90;;;;;;5073581;28;20444;-73
2023/03/05 01:27:36;;;;;;;7.73;3.40;;;4.30;99.90;;;;;;5074708;28;20449;-73
2023/03/05 01:30:04;;;;;;;4.80;2.67;;;4.30;99.90;;;;;;5080217;28;20927;-73
2023/03/05 01:32:31;;;;;;;5.20;2.50;;;4.30;99.90;;;;;;5090054;28;20457;-73
2023/03/05 01:34:57;;;;;;;6.57;2.93;;;4.30;99.90;;;;;;5073535;28;20498;-73
2023/03/05 01:37:24;;;;;;;6.73;2.53;;;4.30;99.90;;;;;;5073721;28;20456;-73
2023/03/05 01:39:50;;;;;;;4.93;2.80;;;4.30;99.90;;;;;;5080188;28;20456;-73
2023/03/05 01:42:18;;;;;;;6.73;2.83;;;4.30;99.90;;;;;;5073381;28;20498;-73
2023/03/05 01:45:02;;;;;;;8.50;2.93;;;4.30;99.90;;;;;;5083423;28;20459;-73
2023/03/05 01:47:29;;;;;;;4.90;2.70;;;4.30;99.90;;;;;;5081433;28;20875;-73
2023/03/05 01:49:56;;;;;;;8.90;3.10;;;4.30;99.90;;;;;;5072909;28;20477;-73
2023/03/05 01:52:24;;;;;;;7.37;4.50;;;4.30;99.90;;;;;;5073343;28;20513;-73
2023/03/05 01:54:54;;;;;;;6.57;3.67;;;4.30;99.90;;;;;;5073086;28;20875;-73
2023/03/05 01:57:26;;;;;;;13.50;3.73;;;4.30;99.90;;;;;;5073176;28;20875;-73
2023/03/05 01:59:56;;;;;;;11.30;3.40;;;4.30;99.90;;;;;;5072974;28;20457;-73
2023/03/05 02:02:25;;;;;;;3.70;2.73;;;4.30;99.90;;;;;;5083510;28;20444;-76
2023/03/05 02:04:55;;;;;;;5.37;3.07;;;4.20;99.90;;;;;;5072974;28;20468;-73
2023/03/05 02:07:23;;;;;;;6.03;3.10;;;4.20;99.90;;;;;;5072744;28;20929;-73
2023/03/05 02:09:49;;;;;;;6.60;3.67;;;4.20;99.90;;;;;;5075289;28;20479;-73
2023/03/05 02:12:17;;;;;;;8.23;2.97;;;4.20;99.90;;;;;;5077947;28;20505;-73
2023/03/05 02:14:46;;;;;;;16.00;3.27;;;4.20;99.90;;;;;;5078771;28;20511;-73
2023/03/05 02:17:13;;;;;;;6.20;2.87;;;4.20;99.90;;;;;;5072645;28;20448;-73
2023/03/05 02:19:50;;;;;;;6.93;3.40;;;4.10;99.90;;;;;;5072372;28;20994;-73
2023/03/05 02:22:19;;;;;;;7.73;3.50;;;4.10;99.90;;;;;;5072810;28;20530;-73
2023/03/05 02:24:46;;;;;;;6.10;3.23;;;4.10;99.90;;;;;;5072172;28;20537;-73
2023/03/05 02:27:14;;;;;;;6.30;3.70;;;4.10;99.90;;;;;;5072047;28;20870;-73
2023/03/05 02:29:42;;;;;;;8.30;3.70;;;4.10;99.90;;;;;;5080006;28;20487;-73
2023/03/05 02:32:09;;;;;;;10.43;3.87;;;4.10;99.90;;;;;;5073188;28;20460;-73
2023/03/05 02:34:36;;;;;;;11.80;4.27;;;4.00;99.90;;;;;;5072201;28;20502;-73
2023/03/05 02:37:03;;;;;;;5.50;2.80;;;4.10;99.90;;;;;;5072190;28;20456;-73
2023/03/05 02:39:32;;;;;;;5.10;3.20;;;4.10;99.90;;;;;;5071815;28;20490;-73
2023/03/05 02:41:58;;;;;;;7.67;3.30;;;4.00;99.90;;;;;;5079040;28;20547;-72
2023/03/05 02:44:25;;;;;;;7.80;3.43;;;4.00;99.90;;;;;;5074123;28;20523;-73
2023/03/05 02:46:53;;;;;;;11.50;3.70;;;4.00;99.90;;;;;;5071855;28;20468;-73
2023/03/05 02:49:19;;;;;;;9.33;3.13;;;3.90;99.90;;;;;;5071901;28;20836;-73
2023/03/05 02:51:46;;;;;;;7.70;3.87;;;3.90;99.90;;;;;;5071896;28;20501;-73
2023/03/05 02:54:13;;;;;;;12.20;3.40;;;3.90;99.90;;;;;;5071519;28;20467;-73
2023/03/05 02:56:42;;;;;;;10.23;3.30;;;3.90;99.90;;;;;;5071988;28;20483;-73
2023/03/05 02:59:09;;;;;;;8.23;3.57;;;3.90;99.90;;;;;;5071363;28;20970;-73
2023/03/05 03:01:35;;;;;;;12.83;3.20;;;3.90;99.90;;;;;;5075775;28;20496;-73
2023/03/05 03:04:02;;;;;;;10.87;4.17;;;3.80;99.90;;;;;;5078557;28;20553;-73
2023/03/05 03:06:29;;;;;;;10.00;3.60;;;3.80;99.90;;;;;;5071891;28;20494;-73
2023/03/05 03:08:55;;;;;;;7.30;3.17;;;3.80;99.90;;;;;;5071477;28;20455;-73
2023/03/05 03:11:22;;;;;;;6.30;2.40;;;3.80;99.90;;;;;;5074094;28;20513;-73
2023/03/05 03:13:50;;;;;;;7.47;3.00;;;3.70;99.90;;;;;;5079178;28;20877;-73
2023/03/05 03:16:18;;;;;;;7.67;2.47;;;3.70;99.90;;;;;;5071765;28;20448;-73
2023/03/05 03:18:46;;;;;;;8.60;2.87;;;3.60;99.90;;;;;;5075065;28;20869;-73
2023/03/05 03:21:17;;;;;;;6.23;2.83;;;3.60;99.90;;;;;;5077895;28;20543;-73
2023/03/05 03:23:44;;;;;;;4.33;2.40;;;3.60;99.90;;;;;;5070924;28;20472;-73
2023/03/05 03:26:11;;;;;;;5.60;1.80;;;3.50;99.90;;;;;;5071706;28;20452;-73
2023/03/05 03:28:37;;;;;;;3.90;2.30;;;3.50;99.90;;;;;;5071144;28;20505;-73
2023/03/05 03:31:05;;;;;;;10.20;2.50;;;3.50;99.90;;;;;;5072331;28;20886;-72
2023/03/05 03:33:32;;;;;;;8.37;2.17;;;3.50;99.90;;;;;;5071832;28;20476;-73
2023/03/05 03:35:59;;;;;;;6.50;2.27;;;3.50;99.90;;;;;;5085767;28;20868;-73
2023/03/05 03:38:26;;;;;;;3.83;1.80;;;3.50;99.90;;;;;;5071275;28;20464;-73
2023/03/05 03:40:52;;;;;;;2.17;1.83;;;3.40;99.90;;;;;;5071561;28;20508;-73
2023/03/05 03:43:19;;;;;;;4.63;2.20;;;3.40;99.90;;;;;;5071075;28;20998;-73
2023/03/05 03:45:46;;;;;;;2.80;1.87;;;3.40;99.90;;;;;;5076316;28;20818;-73
2023/03/05 03:48:14;;;;;;;5.40;2.20;;;3.40;99.90;;;;;;5071046;28;20504;-72
2023/03/05 03:50:41;;;;;;;3.30;2.07;;;3.40;99.90;;;;;;5071203;28;20933;-72
2023/03/05 03:53:12;;;;;;;3.93;1.97;;;3.30;99.90;;;;;;5071318;28;20525;-72
2023/03/05 03:55:39;;;;;;;8.53;2.37;;;3.30;99.90;;;;;;5073567;28;21038;-72
2023/03/05 03:58:06;;;;;;;6.07;2.17;;;3.30;99.90;;;;;;5071035;28;20793;-73
2023/03/05 04:00:32;;;;;;;6.20;2.20;;;3.30;99.90;;;;;;5071061;28;20459;-72
2023/03/05 04:02:59;;;;;;;5.50;1.70;;;3.30;99.90;;;;;;5083603;28;20471;-73
2023/03/05 04:05:27;;;;;;;5.10;1.97;;;3.30;99.90;;;;;;5071318;28;20453;-73
2023/03/05 04:07:54;;;;;;;4.17;1.70;;;3.20;99.90;;;;;;5071126;28;20485;-72
2023/03/05 04:10:21;;;;;;;3.43;1.70;;;3.30;99.90;;;;;;5078673;28;20483;-73
2023/03/05 04:12:47;;;;;;;4.07;1.93;;;3.20;99.90;;;;;;5072609;28;20990;-72
2023/03/05 04:15:14;;;;;;;3.03;1.60;;;3.30;99.90;;;;;;5071164;28;20498;-72
2023/03/05 04:17:40;;;;;;;6.83;1.80;;;3.30;99.90;;;;;;5071010;28;20506;-72
2023/03/05 04:20:09;;;;;;;4.23;1.60;;;3.30;99.90;;;;;;5070809;28;20440;-72
2023/03/05 04:22:37;;;;;;;2.50;1.53;;;3.30;99.90;;;;;;5070965;28;20972;-72
2023/03/05 04:25:05;;;;;;;4.03;1.60;;;3.30;99.90;;;;;;5074243;28;20932;-72
2023/03/05 04:27:32;;;;;;;2.57;1.70;;;3.30;99.90;;;;;;5071005;28;20900;-72
2023/03/05 04:29:58;;;;;;;4.10;1.60;;;3.30;99.90;;;;;;5070384;28;20998;-72
2023/03/05 04:32:27;;;;;;;2.57;1.60;;;3.40;99.90;;;;;;5073197;28;20440;-72
2023/03/05 04:34:54;;;;;;;5.23;1.70;;;3.40;99.90;;;;;;5070752;28;20471;-73
2023/03/05 04:37:20;;;;;;;2.27;1.47;;;3.40;99.90;;;;;;5076677;28;20456;-73
2023/03/05 04:39:48;;;;;;;2.70;1.57;;;3.40;99.90;;;;;;5073853;28;20463;-73
2023/03/05 04:42:16;;;;;;;2.83;1.90;;;3.50;99.90;;;;;;5074733;28;20452;-73
2023/03/05 04:44:42;;;;;;;2.53;1.63;;;3.50;99.90;;;;;;5078191;28;20549;-72
2023/03/05 04:47:09;;;;;;;1.83;1.43;;;3.50;99.90;;;;;;5074343;28;20948;-73
2023/03/05 04:49:36;;;;;;;3.23;1.50;;;3.40;99.90;;;;;;5074017;28;20444;-73
2023/03/05 04:52:02;;;;;;;1.50;1.40;;;3.40;99.90;;;;;;5082694;28;20787;-72
2023/03/05 04:54:29;;;;;;;1.73;1.50;;;3.40;99.90;;;;;;5074149;28;21048;-72
2023/03/05 04:56:57;;;;;;;3.03;1.60;;;3.40;99.90;;;;;;5074322;28;20447;-73
2023/03/05 04:59:23;;;;;;;4.33;1.70;;;3.50;99.90;;;;;;5075847;28;20590;-73
2023/03/05 05:01:50;;;;;;;2.97;1.80;;;3.40;99.90;;;;;;5080652;28;20458;-73
2023/03/05 05:04:17;;;;;;;1.60;1.50;;;3.40;99.90;;;;;;5073485;28;20514;-73
2023/03/05 05:06:43;;;;;;;4.70;1.60;;;3.40;99.90;;;;;;5074150;28;20482;-73
2023/03/05 05:09:10;;;;;;;2.57;1.77;;;3.50;99.90;;;;;;5073801;28;20944;-73
2023/03/05 05:11:37;;;;;;;1.87;1.30;;;3.40;99.90;;;;;;5078269;28;20483;-73
2023/03/05 05:14:05;;;;;;;1.83;1.33;;;3.40;99.90;;;;;;5085761;28;20467;-72
2023/03/05 05:16:31;;;;;;;2.90;1.60;;;3.40;99.90;;;;;;5078405;28;20470;-73
2023/03/05 05:18:58;;;;;;;2.60;1.57;;;3.40;99.90;;;;;;5073673;28;20460;-73
2023/03/05 05:21:25;;;;;;;3.07;1.50;;;3.40;99.90;;;;;;5073840;28;20513;-72
2023/03/05 05:23:51;;;;;;;7.80;1.90;;;3.40;99.90;;;;;;5073856;28;20534;-72
2023/03/05 05:26:18;;;;;;;2.33;1.20;;;3.40;99.90;;;;;;5073815;28;20504;-73
2023/03/05 05:28:45;;;;;;;2.40;1.33;;;3.40;99.90;;;;;;5083930;28;20454;-73
2023/03/05 05:31:15;;;;;;;3.73;1.40;;;3.30;99.90;;;;;;5076460;28;20487;-73
2023/03/05 05:33:41;;;;;;;5.73;1.87;;;3.30;99.90;;;;;;5073807;28;20496;-73
2023/03/05 05:36:12;;;;;;;3.17;1.40;;;3.30;99.90;;;;;;5073589;28;20452;-73
2023/03/05 05:38:38;;;;;;;2.27;1.50;;;3.30;99.90;;;;;;5073920;28;20462;-73
2023/03/05 05:41:07;;;;;;;4.23;1.43;;;3.20;99.90;;;;;;5081731;28;20436;-73
2023/03/05 05:43:33;;;;;;;4.80;2.10;;;3.20;99.90;;;;;;5081059;28;20464;-73
2023/03/05 05:46:01;;;;;;;1.70;1.50;;;3.20;99.90;;;;;;5080229;28;20504;-73
2023/03/05 05:48:30;;;;;;;3.37;1.77;;;3.20;99.90;;;;;;5072788;28;21224;-72
2023/03/05 05:50:57;;;;;;;3.13;1.30;;;3.20;99.90;;;;;;5073042;28;20480;-73
2023/03/05 05:53:24;;;;;;;3.83;1.40;;;3.30;99.90;;;;;;5073606;28;20467;-72
2023/03/05 05:55:51;;;;;;;2.40;1.63;;;3.30;99.90;;;;;;5076331;28;20456;-73
2023/03/05 05:58:18;;;;;;;3.43;1.30;;;3.30;99.90;;;;;;5073052;28;20506;-72
2023/03/05 06:00:45;;;;;;;1.70;1.60;;;3.30;99.90;;;;;;5073522;28;20458;-73
2023/03/05 06:03:12;;;;;;;5.67;2.10;;;3.30;99.90;;;;;;5078375;28;20532;-72
2023/03/05 06:05:41;;;;;;;4.77;1.47;;;3.30;99.90;;;;;;5072904;28;20459;-73
2023/03/05 06:08:07;;;;;;;2.63;1.47;;;3.30;99.90;;;;;;5072744;28;20444;-73
2023/03/05 06:10:34;;;;;;;5.70;1.93;;;3.30;99.90;;;;;;5080799;28;20480;-73
2023/03/05 06:13:01;;;;;;;3.20;1.70;;;3.30;99.90;;;;;;5072216;28;20479;-73
2023/03/05 06:15:27;;;;;;;1.97;1.57;;;3.30;99.90;;;;;;5072209;28;20456;-73
2023/03/05 06:17:54;;;;;;;2.93;2.10;;;3.40;99.90;;;;;;5072735;28;20508;-73
2023/03/05 06:20:22;;;;;;;2.47;1.70;;;3.40;99.90;;;;;;5077867;28;20443;-74
2023/03/05 06:22:49;;;;;;;2.10;1.90;;;3.40;99.90;;;;;;5083276;28;20451;-73
2023/03/05 06:25:16;;;;;;;3.77;2.63;;;3.40;99.90;;;;;;5072460;28;20445;-74
2023/03/05 06:27:43;;;;;;;5.43;2.30;;;3.40;99.90;;;;;;5072486;28;20448;-74
2023/03/05 06:30:11;;;;;;;2.40;2.17;;;3.40;99.90;;;;;;5074776;28;20893;-74
2023/03/05 06:32:38;;;;;;;3.57;2.67;;;3.40;99.90;;;;;;5084602;28;20451;-75
2023/03/05 06:35:05;;;;;;;3.73;2.13;;;3.30;99.90;;;;;;5076007;28;20521;-76
2023/03/05 06:37:33;;;;;;;5.63;2.53;;;3.30;99.90;;;;;;5072325;28;20538;-76
2023/03/05 06:40:01;;;;;;;7.90;2.30;;;3.30;99.90;;;;;;5071804;28;20517;-76
2023/03/05 06:42:28;;;;;;;3.07;2.50;;;3.30;99.90;;;;;;5071960;28;20871;-76
2023/03/05 06:44:54;;;;;;;6.50;3.43;;;3.30;99.90;;;;;;5077809;28;20516;-76
2023/03/05 06:47:21;;;;;;;6.33;3.03;;;3.30;99.90;;;;;;5077653;28;20702;-76
2023/03/05 06:49:47;;;;;;;7.03;3.40;;;3.30;99.90;;;;;;5074425;28;20805;-76
2023/03/05 06:52:14;;;;;;;10.17;3.33;;;3.30;99.90;;;;;;5071883;28;20487;-76
2023/03/05 06:54:41;;;;;;;9.53;3.90;;;3.30;99.90;;;;;;5072011;28;20479;-75
2023/03/05 06:57:09;;;;;;;6.50;3.67;;;3.30;99.90;;;;;;5071627;28;20478;-75
2023/03/05 06:59:36;;;;;;;8.00;3.87;;;3.30;99.90;;;;;;5070903;28;20897;-74
2023/03/05 07:02:03;;;;;;;4.93;3.50;;;3.30;99.90;;;;;;5077452;28;20447;-75
2023/03/05 07:04:29;;;;;;;11.63;4.70;;;3.30;99.90;;;;;;5071781;28;20468;-75
2023/03/05 07:06:57;;;;;;;7.97;4.40;;;3.30;99.90;;;;;;5077793;28;20839;-75
2023/03/05 07:09:23;;;;;;;10.97;5.00;;;3.40;99.90;;;;;;5071479;28;20456;-74
2023/03/05 07:11:50;;;;;;;9.27;5.47;;;3.40;99.90;;;;;;5071307;28;20552;-75
2023/03/05 07:14:18;;;;;;;17.97;6.13;;;3.40;99.90;;;;;;5078954;28;20554;-75
2023/03/05 07:16:45;;;;;;;10.40;5.33;;;3.40;99.90;;;;;;5071235;28;20505;-77
2023/03/05 07:19:11;;;;;;;12.80;6.17;;;3.40;99.90;;;;;;5070889;28;20511;-75
2023/03/05 07:21:38;;;;;;;14.77;6.90;;;3.40;99.90;;;;;;5071025;28;20450;-75
2023/03/05 07:24:06;;;;;;;7.83;5.33;;;3.40;99.90;;;;;;5069891;28;20525;-75
2023/03/05 07:26:33;;;;;;;13.50;6.37;;;3.40;99.90;;;;;;5082406;28;20840;-75
2023/03/05 07:29:00;;;;;;;16.80;6.50;;;3.40;99.90;;;;;;5072458;28;20492;-75
2023/03/05 07:31:30;;;;;;;16.33;6.37;;;3.50;99.90;;;;;;5075750;28;20490;-76
2023/03/05 07:33:58;;;;;;;14.30;6.27;;;3.50;99.90;;;;;;5071479;28;20503;-76
2023/03/05 07:36:25;;;;;;;16.63;7.47;;;3.50;99.90;;;;;;5074977;28;20892;-76
2023/03/05 07:38:51;;;;;;;13.93;7.00;;;3.50;99.90;;;;;;5074969;28;20478;-76
2023/03/05 07:41:20;;;;;;;11.00;6.13;;;3.50;99.90;;;;;;5076310;28;20452;-79
2023/03/05 07:43:49;;;;;;;19.53;7.50;;;3.50;99.90;;;;;;5074259;28;20541;-75
2023/03/05 07:46:17;;;;;;;17.77;7.53;;;3.50;99.90;;;;;;5077618;28;20448;-75
2023/03/05 07:48:45;;;;;;;17.67;7.27;;;3.50;99.90;;;;;;5072906;28;20555;-75
2023/03/05 07:51:15;;;;;;;13.07;7.60;;;3.50;99.90;;;;;;5083535;28;20535;-76
2023/03/05 07:53:42;;;;;;;11.37;6.50;;;3.50;99.90;;;;;;5075247;28;20478;-75
2023/03/05 07:56:09;;;;;;;12.77;6.80;;;3.50;99.90;;;;;;5079475;28;20925;-76
2023/03/05 07:58:36;;;;;;;12.80;7.17;;;3.50;99.90;;;;;;5071164;28;20521;-76
2023/03/05 08:01:03;;;;;;;17.27;7.20;;;3.50;99.90;;;;;;5079639;28;20875;-75
2023/03/05 08:03:30;;;;;;;15.30;7.50;;;3.50;99.90;;;;;;5076948;28;20475;-76
2023/03/05 08:05:58;;;;;;;20.00;7.20;;;3.50;99.90;;;;;;5071259;28;20804;-75
2023/03/05 08:08:25;;;;;;;12.50;7.40;;;3.50;99.90;;;;;;5070961;28;20927;-75
2023/03/05 08:10:51;;;;;;;15.43;7.67;;;3.50;99.90;;;;;;5080338;28;20786;-75
2023/03/05 08:13:18;;;;;;;15.00;7.83;;;3.50;99.90;;;;;;5079277;28;20556;-76
2023/03/05 08:15:44;;;;;;;16.30;8.03;;;3.50;99.90;;;;;;5082974;28;20459;-76
2023/03/05 08:18:12;;;;;;;21.33;8.17;;;3.60;99.90;;;;;;5075155;28;20450;-76
2023/03/05 08:20:39;;;;;;;17.50;7.60;;;3.60;99.90;;;;;;5076345;28;20451;-76
2023/03/05 08:23:07;;;;;;;17.70;8.20;;;3.70;99.90;;;;;;5074816;28;20518;-73
2023/03/05 08:25:34;;;;;;;14.93;8.00;;;3.80;99.90;;;;;;5073509;28;20452;-73
2023/03/05 08:28:00;;;;;;;17.13;8.13;;;3.90;99.90;;;;;;5075055;28;20450;-75
2023/03/05 08:30:27;;;;;;;14.60;8.77;;;4.00;99.90;;;;;;5085356;28;20520;-74
2023/03/05 08:32:54;;;;;;;14.10;7.60;;;4.00;99.90;;;;;;5087885;28;20482;-76
2023/03/05 08:35:21;;;;;;;21.00;9.20;;;3.90;99.90;;;;;;5079171;28;20558;-75
2023/03/05 08:37:48;;;;;;;17.83;9.17;;;4.00;99.90;;;;;;5077937;28;20452;-76
2023/03/05 08:40:18;;;;;;;14.50;7.73;;;4.00;99.90;;;;;;5083065;28;20456;-75
2023/03/05 08:42:44;;;;;;;13.77;7.43;;;4.10;99.90;;;;;;5075075;28;20451;-74
2023/03/05 08:45:12;;;;;;;13.33;7.20;;;4.10;99.90;;;;;;5086829;28;20460;-74
2023/03/05 08:47:40;;;;;;;15.07;7.00;;;4.20;99.90;;;;;;5075394;28;20958;-74
2023/03/05 08:50:07;;;;;;;15.13;8.10;;;4.10;99.90;;;;;;5084606;28;20447;-75
2023/03/05 08:52:34;;;;;;;19.53;8.20;;;4.10;99.90;;;;;;5083469;28;20483;-73
2023/03/05 08:55:00;;;;;;;15.00;7.47;;;4.10;99.90;;;;;;5084737;28;20549;-74
2023/03/05 08:57:28;;;;;;;14.10;7.17;;;4.10;99.90;;;;;;5079846;28;20504;-74
2023/03/05 08:59:55;;;;;;;15.63;6.93;;;4.20;99.90;;;;;;5079857;28;20456;-74
2023/03/05 09:02:21;;;;;;;9.80;6.60;;;4.20;99.90;;;;;;5080900;28;20506;-74
2023/03/05 09:04:48;;;;;;;15.10;7.40;;;4.30;99.90;;;;;;5074462;28;21149;-75
2023/03/05 09:07:15;;;;;;;12.00;6.87;;;4.20;99.90;;;;;;5079346;28;20447;-74
2023/03/05 09:09:41;;;;;;;11.20;6.30;;;4.20;99.90;;;;;;5073695;28;20628;-75
2023/03/05 09:12:10;;;;;;;11.93;6.83;;;4.20;99.90;;;;;;5073682;28;20483;-73
2023/03/05 09:14:38;;;;;;;14.13;6.83;;;4.10;99.90;;;;;;5079192;28;20927;-74
2023/03/05 09:17:05;;;;;;;17.43;7.20;;;4.10;99.90;;;;;;5077349;28;20456;-74
2023/03/05 09:19:32;;;;;;;16.97;8.97;;;4.10;99.90;;;;;;5072269;28;20452;-74
2023/03/05 09:21:58;;;;;;;18.80;8.23;;;4.10;99.90;;;;;;5082754;28;20504;-75
2023/03/05 09:24:25;;;;;;;16.27;8.60;;;4.20;99.90;;;;;;5073634;28;20813;-73
2023/03/05 09:26:52;;;;;;;17.90;8.27;;;4.20;99.90;;;;;;5073366;28;20513;-73
2023/03/05 09:29:18;;;;;;;18.90;8.33;;;4.10;99.90;;;;;;5074767;28;20506;-73
2023/03/05 09:31:50;;;;;;;17.10;8.33;;;4.10;99.90;;;;;;5080033;28;20483;-72
2023/03/05 09:34:17;;;;;;;14.97;7.60;;;4.10;99.90;;;;;;5073303;28;20459;-73
2023/03/05 09:36:43;;;;;;;16.57;7.73;;;4.10;99.90;;;;;;5072867;28;20938;-73
2023/03/05 09:39:10;;;;;;;14.50;7.30;;;4.00;99.90;;;;;;5072619;28;20880;-73
2023/03/05 09:41:53;;;;;;;15.97;6.90;;;4.10;99.90;;;;;;5074858;28;20444;-73
2023/03/05 09:44:29;;;;;;;11.00;5.87;;;4.10;99.90;;;;;;5082603;28;20475;-74
2023/03/05 09:47:08;;;;;;;14.90;6.07;;;4.10;99.90;;;;;;5087720;27;20504;-73
2023/03/05 09:49:49;;;;;;;10.90;6.37;;;4.10;99.90;;;;;;5073463;28;20455;-74
2023/03/05 09:52:20;;;;;;;20.63;6.20;;;4.10;99.90;;;;;;5073792;28;20487;-74
2023/03/05 09:54:52;;;;;;;8.00;5.50;;;4.20;99.90;;;;;;5072626;28;20545;-72
2023/03/05 09:57:22;;;;;;;11.83;6.47;;;4.20;99.90;;;;;;5082462;28;20492;-72
2023/03/05 09:59:53;;;;;;;11.87;6.40;;;4.30;99.90;;;;;;5076262;28;20977;-72
2023/03/05 10:02:26;;;;;;;9.47;5.37;;;4.30;99.90;;;;;;5080269;28;20496;-73
2023/03/05 10:04:57;;;;;;;13.03;6.43;;;4.30;99.90;;;;;;5072569;28;20987;-73
2023/03/05 10:07:28;;;;;;;18.37;5.80;;;4.40;99.90;;;;;;5073803;28;20448;-73
2023/03/05 10:09:58;;;;;;;8.87;5.43;;;4.50;99.90;;;;;;5074463;28;20456;-73
2023/03/05 10:12:32;;;;;;;17.40;5.20;;;4.50;99.90;;;;;;5073469;28;20480;-74
2023/03/05 10:15:01;;;;;;;11.00;6.13;;;4.50;99.90;;;;;;5072848;28;20495;-75
2023/03/05 10:18:07;;;;;;;18.27;5.07;;;4.50;99.90;;;;;;5073289;28;20525;-74
2023/03/05 10:20:50;;;;;;;12.20;5.13;;;4.60;99.90;;;;;;5078705;28;20451;-74
2023/03/05 10:23:28;;;;;;;19.97;5.90;;;4.80;99.90;;;;;;5072565;28;20468;-72
2023/03/05 10:26:01;;;;;;;8.27;4.90;;;4.80;99.90;;;;;;5072088;28;20955;-73
2023/03/05 10:28:38;;;;;;;8.97;5.63;;;4.90;99.90;;;;;;5076974;28;20505;-72
2023/03/05 10:31:18;;;;;;;10.33;4.50;;;4.80;99.90;;;;;;5077658;28;21039;-73
2023/03/05 10:33:57;;;;;;;8.23;4.70;;;5.00;99.90;;;;;;5079159;28;20536;-73
2023/03/05 10:36:44;;;;;;;8.20;4.33;;;5.30;99.90;;;;;;5079961;28;20456;-72
2023/03/05 10:39:46;;;;;;;6.83;4.20;;;5.50;99.90;;;;;;5071920;28;20998;-72
2023/03/05 10:42:21;;;;;;;6.63;4.47;;;5.60;99.90;;;;;;5082737;28;20469;-73
2023/03/05 10:44:52;;;;;;;6.80;4.40;;;5.80;99.90;;;;;;5080319;28;20519;-73
2023/03/05 10:47:25;;;;;;;7.00;4.30;;;6.00;99.90;;;;;;5078216;28;20445;-74
2023/03/05 10:49:54;;;;;;;5.77;3.80;;;6.10;99.90;;;;;;5072121;28;20446;-74
2023/03/05 10:52:25;;;;;;;4.50;3.60;;;6.10;99.90;;;;;;5080770;28;20485;-74
2023/03/05 10:54:51;;;;;;;4.60;3.03;;;6.10;99.90;;;;;;5076992;28;20586;-72
2023/03/05 10:57:21;;;;;;;4.80;3.10;;;6.10;99.90;;;;;;5071668;28;20940;-74
2023/03/05 10:59:50;;;;;;;3.97;3.10;;;6.10;99.90;;;;;;5079598;28;20665;-73
2023/03/05 11:02:18;;;;;;;4.40;2.90;;;6.10;99.90;;;;;;5073138;28;20451;-74
2023/03/05 11:04:46;;;;;;;5.43;2.40;;;6.10;99.90;;;;;;5075182;28;20882;-75
2023/03/05 11:07:48;;;;;;;3.00;2.47;;;6.20;99.90;;;;;;5082194;28;20459;-75
2023/03/05 11:10:20;;;;;;;3.20;2.20;;;6.20;99.90;;;;;;5010019;28;20510;-75
2023/03/05 11:12:47;;;;;;;3.30;2.03;;;6.20;99.90;;;;;;5012906;28;20558;-75
2023/03/05 11:15:30;;;;;;;3.03;2.20;;;6.10;99.90;;;;;;5040964;28;20514;-74
2023/03/05 11:18:19;;;;;;;5.30;2.50;;;5.90;99.90;;;;;;5076315;28;20872;-75
2023/03/05 11:20:47;;;;;;;3.03;2.40;;;5.90;99.90;;;;;;5072487;28;20493;-75
2023/03/05 11:23:16;;;;;;;9.40;2.77;;;5.90;99.90;;;;;;5079865;28;20484;-75
2023/03/05 11:25:59;;;;;;;10.00;2.97;;;5.80;99.90;;;;;;5090857;28;20471;-75
2023/03/05 11:28:29;;;;;;;5.30;3.20;;;5.70;99.90;;;;;;5085487;28;20489;-74
2023/03/05 11:30:59;;;;;;;4.50;2.97;;;5.60;99.90;;;;;;5087227;28;20453;-75
2023/03/05 11:33:26;;;;;;;5.27;3.03;;;5.50;99.90;;;;;;5091182;28;20491;-75
2023/03/05 11:36:11;;;;;;;10.20;4.00;;;5.50;99.90;;;;;;5091079;28;20866;-75
2023/03/05 11:38:46;;;;;;;12.40;3.80;;;5.40;99.90;;;;;;5090992;28;20546;-75
2023/03/05 11:41:14;;;;;;;10.43;3.80;;;5.40;99.90;;;;;;5084045;28;20979;-75
2023/03/05 11:43:41;;;;;;;8.33;4.30;;;5.40;99.90;;;;;;5081614;28;20460;-75
2023/03/05 11:46:12;;;;;;;9.03;5.10;;;5.30;99.90;;;;;;5088767;28;20512;-74
2023/03/05 11:48:41;;;;;;;10.13;3.73;;;5.10;99.90;;;;;;5074700;28;20445;-74
2023/03/05 11:51:15;;;;;;;6.60;4.27;;;5.00;99.90;;;;;;5088844;28;20455;-75
2023/03/05 11:53:44;;;;;;;7.27;3.90;;;4.90;99.90;;;;;;5087839;28;21896;-74
2023/03/05 11:56:20;;;;;;;7.70;5.10;;;4.90;99.90;;;;;;5081953;28;20460;-75
2023/03/05 11:58:52;;;;;;;11.20;3.97;;;4.90;99.90;;;;;;5090730;28;20451;-74
2023/03/05 12:01:21;;;;;;;6.83;3.50;;;4.90;99.90;;;;;;5090514;28;20444;-73
2023/03/05 12:03:49;;;;;;;5.40;3.77;;;4.90;99.90;;;;;;5090929;28;20531;-74
2023/03/05 12:06:20;;;;;;;4.63;3.77;;;5.00;99.90;;;;;;5097978;28;20455;-73
2023/03/05 12:08:50;;;;;;;8.90;3.80;;;5.10;99.90;;;;;;5082948;28;20583;-73
2023/03/05 12:11:20;;;;;;;11.20;3.97;;;5.30;99.90;;;;;;5082114;28;20455;-74
2023/03/05 12:13:50;;;;;;;7.00;3.50;;;5.40;99.90;;;;;;5079827;28;20562;-74
2023/03/05 12:16:27;;;;;;;5.70;3.00;;;5.50;99.90;;;;;;5080039;28;20866;-73
2023/03/05 12:19:02;;;;;;;3.97;3.10;;;5.70;99.90;;;;;;5084066;28;20501;-73
2023/03/05 12:21:35;;;;;;;6.37;3.60;;;5.80;99.90;;;;;;5084818;28;20926;-74
2023/03/05 12:24:23;;;;;;;7.17;4.40;;;6.00;99.90;;;;;;5088060;28;20533;-72
2023/03/05 12:27:10;;;;;;;9.63;4.47;;;6.10;99.90;;;;;;5090599;28;20505;-74
2023/03/05 12:29:43;;;;;;;2.97;2.70;;;6.00;99.90;;;;;;5082477;28;20523;-74
2023/03/05 12:32:59;;;;;;;10.47;3.97;;;5.80;99.90;;;;;;5089669;28;21009;-74
2023/03/05 12:35:34;;;;;;;4.03;2.93;;;5.80;99.90;;;;;;5090249;28;20460;-74
2023/03/05 12:38:28;;;;;;;6.67;3.73;;;5.70;99.90;;;;;;5089272;28;20860;-74
2023/03/05 12:41:42;;;;;;;3.80;3.30;;;5.70;99.90;;;;;;5072693;28;20457;-73
2023/03/05 12:44:22;;;;;;;4.37;3.40;;;5.80;99.90;;;;;;5087197;28;20471;-75
2023/03/05 12:47:22;;;;;;;3.93;3.53;;;5.60;99.90;;;;;;5078561;28;20464;-75
2023/03/05 12:49:49;;;;;;;5.67;3.50;;;5.50;99.90;;;;;;5080371;28;20448;-75
2023/03/05 12:52:23;;;;;;;3.93;3.53;;;5.40;99.90;;;;;;5078660;28;20479;-75
2023/03/05 12:55:15;;;;;;;4.77;3.50;;;5.30;99.90;;;;;;5076805;28;20479;-74
2023/03/05 12:57:44;;;;;;;6.18;3.70;;;5.10;99.90;;;;;;5078594;28;20444;-75
2023/03/05 13:00:20;;;;;;;7.40;3.67;;;5.10;99.90;;;;;;5082551;28;20259;-75
2023/03/05 13:02:54;;;;;;;4.07;3.17;;;5.10;99.90;;;;;;5085768;28;20463;-76
2023/03/05 13:05:25;;;;;;;5.90;3.70;;;5.10;99.90;;;;;;5101482;28;20442;-75